sensor_id;sensor_type;location;lat;lon;timestamp;P1;durP1;ratioP1;P2;durP2;ratioP2
61895;SDS011;47835;52.778;5.956;2023-11-21T00:00:30;29.83;;;11.30;;
61895;SDS011;47835;52.778;5.956;2023-11-21T00:02:55;32.53;;;10.75;;
61895;SDS011;47835;52.778;5.956;2023-11-21T00:05:22;36.20;;;11.50;;
61895;SDS011;47835;52.778;5.956;2023-11-21T00:07:48;44.08;;;12.27;;
61895;SDS011;47835;52.778;5.956;2023-11-21T00:10:14;30.65;;;12.07;;
61895;SDS011;47835;52.778;5.956;2023-11-21T00:12:40;35.42;;;11.32;;
61895;SDS011;47835;52.778;5.956;2023-11-21T00:15:07;37.65;;;12.18;;
61895;SDS011;47835;52.778;5.956;2023-11-21T00:17:39;39.58;;;13.43;;
61895;SDS011;47835;52.778;5.956;2023-11-21T00:20:06;33.90;;;11.93;;
61895;SDS011;47835;52.778;5.956;2023-11-21T00:22:35;37.08;;;13.40;;
61895;SDS011;47835;52.778;5.956;2023-11-21T00:25:01;36.10;;;12.00;;
61895;SDS011;47835;52.778;5.956;2023-11-21T00:27:28;36.72;;;12.85;;
61895;SDS011;47835;52.778;5.956;2023-11-21T00:29:54;34.67;;;12.30;;
61895;SDS011;47835;52.778;5.956;2023-11-21T00:32:20;34.67;;;12.55;;
61895;SDS011;47835;52.778;5.956;2023-11-21T00:34:45;34.50;;;12.65;;
61895;SDS011;47835;52.778;5.956;2023-11-21T00:37:11;39.95;;;15.05;;
61895;SDS011;47835;52.778;5.956;2023-11-21T00:39:36;35.17;;;12.18;;
61895;SDS011;47835;52.778;5.956;2023-11-21T00:42:02;36.72;;;13.55;;
61895;SDS011;47835;52.778;5.956;2023-11-21T00:44:29;41.63;;;14.05;;
61895;SDS011;47835;52.778;5.956;2023-11-21T00:46:55;40.08;;;14.90;;
61895;SDS011;47835;52.778;5.956;2023-11-21T00:49:21;39.63;;;15.95;;
61895;SDS011;47835;52.778;5.956;2023-11-21T00:51:46;35.53;;;14.40;;
61895;SDS011;47835;52.778;5.956;2023-11-21T00:54:12;36.55;;;13.27;;
61895;SDS011;47835;52.778;5.956;2023-11-21T00:56:37;38.70;;;14.88;;
61895;SDS011;47835;52.778;5.956;2023-11-21T00:59:05;39.03;;;13.90;;
61895;SDS011;47835;52.778;5.956;2023-11-21T01:01:30;34.20;;;14.07;;
61895;SDS011;47835;52.778;5.956;2023-11-21T01:03:56;43.35;;;15.65;;
61895;SDS011;47835;52.778;5.956;2023-11-21T01:06:21;42.10;;;14.13;;
61895;SDS011;47835;52.778;5.956;2023-11-21T01:08:47;37.72;;;13.90;;
61895;SDS011;47835;52.778;5.956;2023-11-21T01:11:12;39.10;;;14.23;;
61895;SDS011;47835;52.778;5.956;2023-11-21T01:13:38;35.30;;;13.77;;
61895;SDS011;47835;52.778;5.956;2023-11-21T01:16:05;35.25;;;14.80;;
61895;SDS011;47835;52.778;5.956;2023-11-21T01:18:31;37.40;;;14.20;;
61895;SDS011;47835;52.778;5.956;2023-11-21T01:20:57;31.52;;;12.23;;
61895;SDS011;47835;52.778;5.956;2023-11-21T01:23:25;35.78;;;14.10;;
61895;SDS011;47835;52.778;5.956;2023-11-21T01:25:51;35.88;;;13.25;;
61895;SDS011;47835;52.778;5.956;2023-11-21T01:28:17;35.13;;;12.85;;
61895;SDS011;47835;52.778;5.956;2023-11-21T01:30:43;38.67;;;13.57;;
61895;SDS011;47835;52.778;5.956;2023-11-21T01:33:10;35.78;;;13.52;;
61895;SDS011;47835;52.778;5.956;2023-11-21T01:35:36;37.15;;;14.05;;
61895;SDS011;47835;52.778;5.956;2023-11-21T01:38:02;40.20;;;14.90;;
61895;SDS011;47835;52.778;5.956;2023-11-21T01:40:28;34.50;;;13.40;;
61895;SDS011;47835;52.778;5.956;2023-11-21T01:42:55;45.63;;;15.80;;
61895;SDS011;47835;52.778;5.956;2023-11-21T01:45:21;36.45;;;12.13;;
61895;SDS011;47835;52.778;5.956;2023-11-21T01:47:46;36.17;;;13.18;;
61895;SDS011;47835;52.778;5.956;2023-11-21T01:50:13;31.33;;;12.77;;
61895;SDS011;47835;52.778;5.956;2023-11-21T01:52:42;29.65;;;12.63;;
61895;SDS011;47835;52.778;5.956;2023-11-21T01:55:10;35.50;;;13.60;;
61895;SDS011;47835;52.778;5.956;2023-11-21T01:57:37;38.90;;;14.10;;
61895;SDS011;47835;52.778;5.956;2023-11-21T02:00:03;33.30;;;13.15;;
61895;SDS011;47835;52.778;5.956;2023-11-21T02:02:41;37.20;;;15.00;;
61895;SDS011;47835;52.778;5.956;2023-11-21T02:05:16;33.58;;;13.10;;
61895;SDS011;47835;52.778;5.956;2023-11-21T02:07:43;42.15;;;14.73;;
61895;SDS011;47835;52.778;5.956;2023-11-21T02:10:10;31.05;;;12.20;;
61895;SDS011;47835;52.778;5.956;2023-11-21T02:12:39;32.75;;;12.60;;
61895;SDS011;47835;52.778;5.956;2023-11-21T02:15:07;31.90;;;10.93;;
61895;SDS011;47835;52.778;5.956;2023-11-21T02:17:40;34.78;;;11.05;;
61895;SDS011;47835;52.778;5.956;2023-11-21T02:20:09;32.40;;;11.73;;
61895;SDS011;47835;52.778;5.956;2023-11-21T02:22:42;34.38;;;11.05;;
61895;SDS011;47835;52.778;5.956;2023-11-21T02:25:26;35.63;;;10.93;;
61895;SDS011;47835;52.778;5.956;2023-11-21T02:27:53;32.65;;;11.40;;
61895;SDS011;47835;52.778;5.956;2023-11-21T02:30:20;34.33;;;11.38;;
61895;SDS011;47835;52.778;5.956;2023-11-21T02:32:47;24.73;;;9.85;;
61895;SDS011;47835;52.778;5.956;2023-11-21T02:35:13;31.15;;;11.82;;
61895;SDS011;47835;52.778;5.956;2023-11-21T02:37:40;26.80;;;11.10;;
61895;SDS011;47835;52.778;5.956;2023-11-21T02:40:08;30.48;;;10.98;;
61895;SDS011;47835;52.778;5.956;2023-11-21T02:42:35;34.38;;;12.57;;
61895;SDS011;47835;52.778;5.956;2023-11-21T02:45:00;46.30;;;12.07;;
61895;SDS011;47835;52.778;5.956;2023-11-21T02:47:26;27.88;;;9.13;;
61895;SDS011;47835;52.778;5.956;2023-11-21T02:49:51;32.80;;;11.65;;
61895;SDS011;47835;52.778;5.956;2023-11-21T02:52:17;37.83;;;11.63;;
61895;SDS011;47835;52.778;5.956;2023-11-21T02:54:44;36.97;;;13.77;;
61895;SDS011;47835;52.778;5.956;2023-11-21T02:57:09;39.95;;;12.90;;
61895;SDS011;47835;52.778;5.956;2023-11-21T02:59:35;32.33;;;10.60;;
61895;SDS011;47835;52.778;5.956;2023-11-21T03:02:01;28.58;;;10.93;;
61895;SDS011;47835;52.778;5.956;2023-11-21T03:04:26;34.53;;;11.75;;
61895;SDS011;47835;52.778;5.956;2023-11-21T03:06:52;29.67;;;12.07;;
61895;SDS011;47835;52.778;5.956;2023-11-21T03:09:17;29.65;;;10.50;;
61895;SDS011;47835;52.778;5.956;2023-11-21T03:11:43;31.30;;;10.52;;
61895;SDS011;47835;52.778;5.956;2023-11-21T03:14:08;22.30;;;9.05;;
61895;SDS011;47835;52.778;5.956;2023-11-21T03:16:34;26.40;;;8.93;;
61895;SDS011;47835;52.778;5.956;2023-11-21T03:19:00;29.52;;;9.05;;
61895;SDS011;47835;52.778;5.956;2023-11-21T03:21:26;24.88;;;8.88;;
61895;SDS011;47835;52.778;5.956;2023-11-21T03:23:51;25.98;;;9.77;;
61895;SDS011;47835;52.778;5.956;2023-11-21T03:26:18;29.73;;;11.07;;
61895;SDS011;47835;52.778;5.956;2023-11-21T03:28:43;24.80;;;8.52;;
61895;SDS011;47835;52.778;5.956;2023-11-21T03:31:09;29.10;;;9.90;;
61895;SDS011;47835;52.778;5.956;2023-11-21T03:33:35;23.85;;;9.07;;
61895;SDS011;47835;52.778;5.956;2023-11-21T03:36:01;30.70;;;9.70;;
61895;SDS011;47835;52.778;5.956;2023-11-21T03:38:28;24.80;;;8.70;;
61895;SDS011;47835;52.778;5.956;2023-11-21T03:40:54;26.52;;;8.45;;
61895;SDS011;47835;52.778;5.956;2023-11-21T03:43:19;36.97;;;10.05;;
61895;SDS011;47835;52.778;5.956;2023-11-21T03:45:45;27.73;;;9.98;;
61895;SDS011;47835;52.778;5.956;2023-11-21T03:48:12;23.35;;;8.43;;
61895;SDS011;47835;52.778;5.956;2023-11-21T03:50:38;31.90;;;9.68;;
61895;SDS011;47835;52.778;5.956;2023-11-21T03:53:03;34.63;;;10.15;;
61895;SDS011;47835;52.778;5.956;2023-11-21T03:55:29;24.35;;;8.52;;
61895;SDS011;47835;52.778;5.956;2023-11-21T03:57:56;29.00;;;8.45;;
61895;SDS011;47835;52.778;5.956;2023-11-21T04:00:22;40.33;;;9.77;;
61895;SDS011;47835;52.778;5.956;2023-11-21T04:02:48;28.27;;;8.20;;
61895;SDS011;47835;52.778;5.956;2023-11-21T04:05:16;24.65;;;8.13;;
61895;SDS011;47835;52.778;5.956;2023-11-21T04:07:42;22.98;;;7.68;;
61895;SDS011;47835;52.778;5.956;2023-11-21T04:10:08;16.73;;;7.10;;
61895;SDS011;47835;52.778;5.956;2023-11-21T04:12:37;23.00;;;8.38;;
61895;SDS011;47835;52.778;5.956;2023-11-21T04:15:03;28.30;;;8.18;;
61895;SDS011;47835;52.778;5.956;2023-11-21T04:17:29;22.85;;;8.07;;
61895;SDS011;47835;52.778;5.956;2023-11-21T04:19:54;23.52;;;8.57;;
61895;SDS011;47835;52.778;5.956;2023-11-21T04:22:20;24.70;;;7.35;;
61895;SDS011;47835;52.778;5.956;2023-11-21T04:24:46;23.10;;;7.13;;
61895;SDS011;47835;52.778;5.956;2023-11-21T04:27:11;27.25;;;7.93;;
61895;SDS011;47835;52.778;5.956;2023-11-21T04:29:38;23.17;;;7.80;;
61895;SDS011;47835;52.778;5.956;2023-11-21T04:32:03;20.50;;;7.22;;
61895;SDS011;47835;52.778;5.956;2023-11-21T04:34:29;23.55;;;8.15;;
61895;SDS011;47835;52.778;5.956;2023-11-21T04:36:58;26.30;;;8.23;;
61895;SDS011;47835;52.778;5.956;2023-11-21T04:39:25;22.40;;;7.45;;
61895;SDS011;47835;52.778;5.956;2023-11-21T04:41:50;24.85;;;7.43;;
61895;SDS011;47835;52.778;5.956;2023-11-21T04:44:16;25.13;;;8.18;;
61895;SDS011;47835;52.778;5.956;2023-11-21T04:46:42;27.02;;;7.13;;
61895;SDS011;47835;52.778;5.956;2023-11-21T04:49:07;31.20;;;7.93;;
61895;SDS011;47835;52.778;5.956;2023-11-21T04:51:33;35.17;;;7.72;;
61895;SDS011;47835;52.778;5.956;2023-11-21T04:53:59;29.02;;;7.75;;
61895;SDS011;47835;52.778;5.956;2023-11-21T04:56:24;26.92;;;7.47;;
61895;SDS011;47835;52.778;5.956;2023-11-21T04:58:50;25.58;;;7.40;;
61895;SDS011;47835;52.778;5.956;2023-11-21T05:01:15;19.90;;;7.50;;
61895;SDS011;47835;52.778;5.956;2023-11-21T05:03:41;17.83;;;7.03;;
61895;SDS011;47835;52.778;5.956;2023-11-21T05:06:09;23.02;;;7.55;;
61895;SDS011;47835;52.778;5.956;2023-11-21T05:08:35;25.17;;;8.55;;
61895;SDS011;47835;52.778;5.956;2023-11-21T05:11:02;26.75;;;8.40;;
61895;SDS011;47835;52.778;5.956;2023-11-21T05:13:28;19.25;;;7.50;;
61895;SDS011;47835;52.778;5.956;2023-11-21T05:15:54;16.77;;;6.97;;
61895;SDS011;47835;52.778;5.956;2023-11-21T05:18:21;19.63;;;7.40;;
61895;SDS011;47835;52.778;5.956;2023-11-21T05:20:47;21.98;;;7.53;;
61895;SDS011;47835;52.778;5.956;2023-11-21T05:23:13;17.17;;;10.25;;
61895;SDS011;47835;52.778;5.956;2023-11-21T05:25:39;21.55;;;9.77;;
61895;SDS011;47835;52.778;5.956;2023-11-21T05:28:06;26.70;;;8.25;;
61895;SDS011;47835;52.778;5.956;2023-11-21T05:30:32;21.90;;;7.70;;
61895;SDS011;47835;52.778;5.956;2023-11-21T05:32:57;20.15;;;7.22;;
61895;SDS011;47835;52.778;5.956;2023-11-21T05:35:23;28.33;;;9.05;;
61895;SDS011;47835;52.778;5.956;2023-11-21T05:37:48;22.63;;;8.73;;
61895;SDS011;47835;52.778;5.956;2023-11-21T05:40:14;24.27;;;7.57;;
61895;SDS011;47835;52.778;5.956;2023-11-21T05:42:40;25.70;;;7.45;;
61895;SDS011;47835;52.778;5.956;2023-11-21T05:45:06;26.10;;;8.23;;
61895;SDS011;47835;52.778;5.956;2023-11-21T05:47:39;24.60;;;7.30;;
61895;SDS011;47835;52.778;5.956;2023-11-21T05:50:06;24.95;;;7.70;;
61895;SDS011;47835;52.778;5.956;2023-11-21T05:52:35;26.08;;;8.52;;
61895;SDS011;47835;52.778;5.956;2023-11-21T05:55:02;31.63;;;12.38;;
61895;SDS011;47835;52.778;5.956;2023-11-21T05:57:29;33.78;;;10.05;;
61895;SDS011;47835;52.778;5.956;2023-11-21T05:59:55;31.17;;;9.93;;
61895;SDS011;47835;52.778;5.956;2023-11-21T06:02:21;33.08;;;9.00;;
61895;SDS011;47835;52.778;5.956;2023-11-21T06:04:46;28.20;;;9.70;;
61895;SDS011;47835;52.778;5.956;2023-11-21T06:07:12;31.00;;;11.52;;
61895;SDS011;47835;52.778;5.956;2023-11-21T06:09:37;39.35;;;12.40;;
61895;SDS011;47835;52.778;5.956;2023-11-21T06:12:03;29.35;;;10.10;;
61895;SDS011;47835;52.778;5.956;2023-11-21T06:14:29;34.88;;;12.75;;
61895;SDS011;47835;52.778;5.956;2023-11-21T06:16:54;28.38;;;10.65;;
61895;SDS011;47835;52.778;5.956;2023-11-21T06:19:21;35.00;;;11.80;;
61895;SDS011;47835;52.778;5.956;2023-11-21T06:21:47;34.65;;;11.57;;
61895;SDS011;47835;52.778;5.956;2023-11-21T06:24:13;30.67;;;11.98;;
61895;SDS011;47835;52.778;5.956;2023-11-21T06:26:40;31.38;;;11.13;;
61895;SDS011;47835;52.778;5.956;2023-11-21T06:29:06;36.67;;;12.60;;
61895;SDS011;47835;52.778;5.956;2023-11-21T06:31:32;30.70;;;10.90;;
61895;SDS011;47835;52.778;5.956;2023-11-21T06:33:58;31.63;;;10.85;;
61895;SDS011;47835;52.778;5.956;2023-11-21T06:36:24;30.65;;;10.52;;
61895;SDS011;47835;52.778;5.956;2023-11-21T06:38:51;27.38;;;11.02;;
61895;SDS011;47835;52.778;5.956;2023-11-21T06:41:17;30.67;;;11.93;;
61895;SDS011;47835;52.778;5.956;2023-11-21T06:43:43;33.65;;;12.75;;
61895;SDS011;47835;52.778;5.956;2023-11-21T06:46:12;33.30;;;11.07;;
61895;SDS011;47835;52.778;5.956;2023-11-21T06:48:40;32.25;;;11.35;;
61895;SDS011;47835;52.778;5.956;2023-11-21T06:51:07;25.65;;;10.75;;
61895;SDS011;47835;52.778;5.956;2023-11-21T06:53:33;26.92;;;10.00;;
61895;SDS011;47835;52.778;5.956;2023-11-21T06:55:59;24.30;;;8.98;;
61895;SDS011;47835;52.778;5.956;2023-11-21T06:58:24;20.25;;;8.85;;
61895;SDS011;47835;52.778;5.956;2023-11-21T07:00:50;23.65;;;9.20;;
61895;SDS011;47835;52.778;5.956;2023-11-21T07:03:17;20.02;;;8.57;;
61895;SDS011;47835;52.778;5.956;2023-11-21T07:05:44;25.67;;;9.30;;
61895;SDS011;47835;52.778;5.956;2023-11-21T07:08:10;23.90;;;9.05;;
61895;SDS011;47835;52.778;5.956;2023-11-21T07:10:35;22.80;;;7.90;;
61895;SDS011;47835;52.778;5.956;2023-11-21T07:13:01;24.40;;;9.40;;
61895;SDS011;47835;52.778;5.956;2023-11-21T07:15:27;20.30;;;8.80;;
61895;SDS011;47835;52.778;5.956;2023-11-21T07:17:53;23.38;;;8.43;;
61895;SDS011;47835;52.778;5.956;2023-11-21T07:20:19;20.45;;;8.48;;
61895;SDS011;47835;52.778;5.956;2023-11-21T07:22:45;24.80;;;9.38;;
61895;SDS011;47835;52.778;5.956;2023-11-21T07:25:10;26.80;;;9.50;;
61895;SDS011;47835;52.778;5.956;2023-11-21T07:27:37;29.38;;;9.77;;
61895;SDS011;47835;52.778;5.956;2023-11-21T07:30:02;29.48;;;10.15;;
61895;SDS011;47835;52.778;5.956;2023-11-21T07:32:30;35.05;;;10.57;;
61895;SDS011;47835;52.778;5.956;2023-11-21T07:34:56;28.35;;;10.52;;
61895;SDS011;47835;52.778;5.956;2023-11-21T07:37:24;27.13;;;8.73;;
61895;SDS011;47835;52.778;5.956;2023-11-21T07:39:53;32.38;;;11.05;;
61895;SDS011;47835;52.778;5.956;2023-11-21T07:42:21;32.15;;;10.23;;
61895;SDS011;47835;52.778;5.956;2023-11-21T07:44:49;35.75;;;11.93;;
61895;SDS011;47835;52.778;5.956;2023-11-21T07:47:15;37.58;;;12.18;;
61895;SDS011;47835;52.778;5.956;2023-11-21T07:49:40;30.05;;;10.70;;
61895;SDS011;47835;52.778;5.956;2023-11-21T07:52:08;41.42;;;12.50;;
61895;SDS011;47835;52.778;5.956;2023-11-21T07:54:34;37.50;;;11.43;;
61895;SDS011;47835;52.778;5.956;2023-11-21T07:57:01;40.60;;;12.68;;
61895;SDS011;47835;52.778;5.956;2023-11-21T07:59:27;39.13;;;13.48;;
61895;SDS011;47835;52.778;5.956;2023-11-21T08:01:53;40.08;;;12.55;;
61895;SDS011;47835;52.778;5.956;2023-11-21T08:04:19;40.45;;;13.90;;
61895;SDS011;47835;52.778;5.956;2023-11-21T08:06:44;45.05;;;13.68;;
61895;SDS011;47835;52.778;5.956;2023-11-21T08:09:10;41.50;;;12.80;;
61895;SDS011;47835;52.778;5.956;2023-11-21T08:11:37;35.90;;;13.25;;
61895;SDS011;47835;52.778;5.956;2023-11-21T08:14:03;36.53;;;12.90;;
61895;SDS011;47835;52.778;5.956;2023-11-21T08:16:30;34.90;;;12.32;;
61895;SDS011;47835;52.778;5.956;2023-11-21T08:18:55;42.95;;;13.40;;
61895;SDS011;47835;52.778;5.956;2023-11-21T08:21:21;38.42;;;12.77;;
61895;SDS011;47835;52.778;5.956;2023-11-21T08:23:49;35.40;;;12.82;;
61895;SDS011;47835;52.778;5.956;2023-11-21T08:26:19;34.45;;;12.45;;
61895;SDS011;47835;52.778;5.956;2023-11-21T08:28:45;35.15;;;12.65;;
61895;SDS011;47835;52.778;5.956;2023-11-21T08:31:12;32.78;;;11.55;;
61895;SDS011;47835;52.778;5.956;2023-11-21T08:33:38;34.33;;;12.57;;
61895;SDS011;47835;52.778;5.956;2023-11-21T08:36:09;30.55;;;10.48;;
61895;SDS011;47835;52.778;5.956;2023-11-21T08:38:36;34.65;;;10.95;;
61895;SDS011;47835;52.778;5.956;2023-11-21T08:41:04;31.85;;;12.43;;
61895;SDS011;47835;52.778;5.956;2023-11-21T08:43:32;29.48;;;10.63;;
61895;SDS011;47835;52.778;5.956;2023-11-21T08:45:59;27.65;;;9.65;;
61895;SDS011;47835;52.778;5.956;2023-11-21T08:48:25;27.25;;;10.50;;
61895;SDS011;47835;52.778;5.956;2023-11-21T08:50:50;26.70;;;9.73;;
61895;SDS011;47835;52.778;5.956;2023-11-21T08:53:16;29.70;;;10.57;;
61895;SDS011;47835;52.778;5.956;2023-11-21T08:55:41;26.10;;;9.68;;
61895;SDS011;47835;52.778;5.956;2023-11-21T08:58:09;26.15;;;9.38;;
61895;SDS011;47835;52.778;5.956;2023-11-21T09:00:34;24.38;;;9.70;;
61895;SDS011;47835;52.778;5.956;2023-11-21T09:03:01;34.70;;;10.68;;
61895;SDS011;47835;52.778;5.956;2023-11-21T09:05:28;29.27;;;10.55;;
61895;SDS011;47835;52.778;5.956;2023-11-21T09:07:53;32.17;;;10.95;;
61895;SDS011;47835;52.778;5.956;2023-11-21T09:10:19;33.25;;;10.20;;
61895;SDS011;47835;52.778;5.956;2023-11-21T09:12:45;30.38;;;10.35;;
61895;SDS011;47835;52.778;5.956;2023-11-21T09:15:11;28.52;;;9.55;;
61895;SDS011;47835;52.778;5.956;2023-11-21T09:17:36;30.55;;;11.02;;
61895;SDS011;47835;52.778;5.956;2023-11-21T09:20:02;28.38;;;9.10;;
61895;SDS011;47835;52.778;5.956;2023-11-21T09:22:30;30.98;;;10.18;;
61895;SDS011;47835;52.778;5.956;2023-11-21T09:24:57;23.35;;;9.52;;
61895;SDS011;47835;52.778;5.956;2023-11-21T09:27:22;24.80;;;8.05;;
61895;SDS011;47835;52.778;5.956;2023-11-21T09:29:49;31.40;;;9.02;;
61895;SDS011;47835;52.778;5.956;2023-11-21T09:32:16;25.05;;;7.88;;
61895;SDS011;47835;52.778;5.956;2023-11-21T09:34:43;27.20;;;7.45;;
61895;SDS011;47835;52.778;5.956;2023-11-21T09:37:09;23.98;;;7.63;;
61895;SDS011;47835;52.778;5.956;2023-11-21T09:39:34;20.90;;;7.28;;
61895;SDS011;47835;52.778;5.956;2023-11-21T09:42:08;21.80;;;6.85;;
61895;SDS011;47835;52.778;5.956;2023-11-21T09:44:58;17.27;;;6.30;;
61895;SDS011;47835;52.778;5.956;2023-11-21T09:47:35;20.63;;;6.45;;
61895;SDS011;47835;52.778;5.956;2023-11-21T09:50:04;19.33;;;6.00;;
61895;SDS011;47835;52.778;5.956;2023-11-21T09:52:38;17.30;;;6.30;;
61895;SDS011;47835;52.778;5.956;2023-11-21T09:55:14;21.35;;;8.68;;
61895;SDS011;47835;52.778;5.956;2023-11-21T09:57:44;16.45;;;6.72;;
61895;SDS011;47835;52.778;5.956;2023-11-21T10:00:10;20.05;;;7.35;;
61895;SDS011;47835;52.778;5.956;2023-11-21T10:02:37;17.58;;;6.57;;
61895;SDS011;47835;52.778;5.956;2023-11-21T10:05:05;18.08;;;7.38;;
61895;SDS011;47835;52.778;5.956;2023-11-21T10:07:31;21.80;;;9.30;;
61895;SDS011;47835;52.778;5.956;2023-11-21T10:10:00;19.20;;;7.13;;
61895;SDS011;47835;52.778;5.956;2023-11-21T10:12:26;16.25;;;6.80;;
61895;SDS011;47835;52.778;5.956;2023-11-21T10:14:53;16.92;;;7.50;;
61895;SDS011;47835;52.778;5.956;2023-11-21T10:17:22;23.00;;;9.80;;
61895;SDS011;47835;52.778;5.956;2023-11-21T10:19:52;17.00;;;7.10;;
61895;SDS011;47835;52.778;5.956;2023-11-21T10:22:19;15.07;;;6.82;;
61895;SDS011;47835;52.778;5.956;2023-11-21T10:24:45;14.82;;;7.43;;
61895;SDS011;47835;52.778;5.956;2023-11-21T10:27:11;17.35;;;7.47;;
61895;SDS011;47835;52.778;5.956;2023-11-21T10:29:38;17.48;;;8.35;;
61895;SDS011;47835;52.778;5.956;2023-11-21T10:32:05;15.75;;;8.63;;
61895;SDS011;47835;52.778;5.956;2023-11-21T10:34:30;17.92;;;8.27;;
61895;SDS011;47835;52.778;5.956;2023-11-21T10:36:56;15.50;;;7.70;;
61895;SDS011;47835;52.778;5.956;2023-11-21T10:39:23;16.77;;;7.80;;
61895;SDS011;47835;52.778;5.956;2023-11-21T10:41:53;18.20;;;9.68;;
61895;SDS011;47835;52.778;5.956;2023-11-21T10:44:20;21.95;;;9.98;;
61895;SDS011;47835;52.778;5.956;2023-11-21T10:46:53;22.38;;;10.65;;
61895;SDS011;47835;52.778;5.956;2023-11-21T10:49:24;19.83;;;10.20;;
61895;SDS011;47835;52.778;5.956;2023-11-21T10:51:50;19.77;;;10.32;;
61895;SDS011;47835;52.778;5.956;2023-11-21T10:54:21;22.42;;;10.25;;
61895;SDS011;47835;52.778;5.956;2023-11-21T10:56:49;22.30;;;11.05;;
61895;SDS011;47835;52.778;5.956;2023-11-21T10:59:23;22.00;;;11.05;;
61895;SDS011;47835;52.778;5.956;2023-11-21T11:01:54;20.17;;;9.93;;
61895;SDS011;47835;52.778;5.956;2023-11-21T11:04:22;19.20;;;10.65;;
61895;SDS011;47835;52.778;5.956;2023-11-21T11:07:01;21.58;;;10.18;;
61895;SDS011;47835;52.778;5.956;2023-11-21T11:09:28;20.83;;;9.95;;
61895;SDS011;47835;52.778;5.956;2023-11-21T11:11:58;17.60;;;9.65;;
61895;SDS011;47835;52.778;5.956;2023-11-21T11:14:24;15.98;;;8.38;;
61895;SDS011;47835;52.778;5.956;2023-11-21T11:16:53;19.02;;;9.68;;
61895;SDS011;47835;52.778;5.956;2023-11-21T11:19:20;17.65;;;9.60;;
61895;SDS011;47835;52.778;5.956;2023-11-21T11:36:25;18.60;;;9.85;;
61895;SDS011;47835;52.778;5.956;2023-11-21T11:38:51;17.42;;;10.10;;
61895;SDS011;47835;52.778;5.956;2023-11-21T11:41:27;18.05;;;10.60;;
61895;SDS011;47835;52.778;5.956;2023-11-21T11:43:57;18.58;;;9.32;;
61895;SDS011;47835;52.778;5.956;2023-11-21T11:46:39;18.33;;;9.30;;
61895;SDS011;47835;52.778;5.956;2023-11-21T11:49:07;16.95;;;10.18;;
61895;SDS011;47835;52.778;5.956;2023-11-21T11:51:33;18.13;;;9.00;;
61895;SDS011;47835;52.778;5.956;2023-11-21T11:54:00;19.65;;;10.88;;
61895;SDS011;47835;52.778;5.956;2023-11-21T11:56:33;17.65;;;9.90;;
61895;SDS011;47835;52.778;5.956;2023-11-21T11:59:04;21.10;;;11.13;;
61895;SDS011;47835;52.778;5.956;2023-11-21T12:01:30;20.33;;;11.57;;
61895;SDS011;47835;52.778;5.956;2023-11-21T12:06:56;17.00;;;10.38;;
61895;SDS011;47835;52.778;5.956;2023-11-21T12:09:25;19.50;;;10.45;;
61895;SDS011;47835;52.778;5.956;2023-11-21T12:11:51;17.02;;;9.80;;
61895;SDS011;47835;52.778;5.956;2023-11-21T12:14:18;18.85;;;9.90;;
61895;SDS011;47835;52.778;5.956;2023-11-21T12:16:43;16.55;;;9.93;;
61895;SDS011;47835;52.778;5.956;2023-11-21T12:19:10;13.00;;;7.53;;
61895;SDS011;47835;52.778;5.956;2023-11-21T12:21:36;14.68;;;8.73;;
61895;SDS011;47835;52.778;5.956;2023-11-21T12:24:03;14.98;;;8.57;;
61895;SDS011;47835;52.778;5.956;2023-11-21T12:26:29;24.48;;;14.80;;
61895;SDS011;47835;52.778;5.956;2023-11-21T12:28:55;18.08;;;11.13;;
61895;SDS011;47835;52.778;5.956;2023-11-21T12:31:23;16.63;;;9.30;;
61895;SDS011;47835;52.778;5.956;2023-11-21T12:33:49;22.67;;;14.77;;
61895;SDS011;47835;52.778;5.956;2023-11-21T12:36:15;14.63;;;8.63;;
61895;SDS011;47835;52.778;5.956;2023-11-21T12:38:41;17.02;;;12.02;;
61895;SDS011;47835;52.778;5.956;2023-11-21T12:41:07;14.43;;;8.85;;
61895;SDS011;47835;52.778;5.956;2023-11-21T12:43:35;16.08;;;10.43;;
61895;SDS011;47835;52.778;5.956;2023-11-21T12:46:10;12.93;;;9.02;;
61895;SDS011;47835;52.778;5.956;2023-11-21T12:48:41;12.93;;;8.35;;
61895;SDS011;47835;52.778;5.956;2023-11-21T12:51:10;12.88;;;9.57;;
61895;SDS011;47835;52.778;5.956;2023-11-21T12:53:37;13.18;;;9.00;;
61895;SDS011;47835;52.778;5.956;2023-11-21T12:56:07;15.70;;;10.15;;
61895;SDS011;47835;52.778;5.956;2023-11-21T12:58:34;15.85;;;11.88;;
61895;SDS011;47835;52.778;5.956;2023-11-21T13:01:01;14.60;;;9.88;;
61895;SDS011;47835;52.778;5.956;2023-11-21T13:03:29;12.48;;;7.80;;
61895;SDS011;47835;52.778;5.956;2023-11-21T13:05:55;12.95;;;8.60;;
61895;SDS011;47835;52.778;5.956;2023-11-21T13:08:22;12.98;;;8.40;;
61895;SDS011;47835;52.778;5.956;2023-11-21T13:10:51;10.55;;;7.45;;
61895;SDS011;47835;52.778;5.956;2023-11-21T13:13:19;11.93;;;7.63;;
61895;SDS011;47835;52.778;5.956;2023-11-21T13:15:52;13.18;;;8.00;;
61895;SDS011;47835;52.778;5.956;2023-11-21T13:18:30;11.65;;;6.63;;
61895;SDS011;47835;52.778;5.956;2023-11-21T13:20:57;11.15;;;7.32;;
61895;SDS011;47835;52.778;5.956;2023-11-21T13:23:24;12.23;;;7.22;;
61895;SDS011;47835;52.778;5.956;2023-11-21T13:25:51;10.52;;;6.50;;
61895;SDS011;47835;52.778;5.956;2023-11-21T13:28:17;11.00;;;6.65;;
61895;SDS011;47835;52.778;5.956;2023-11-21T13:30:47;9.00;;;5.75;;
61895;SDS011;47835;52.778;5.956;2023-11-21T13:33:13;9.77;;;6.22;;
61895;SDS011;47835;52.778;5.956;2023-11-21T13:35:43;11.00;;;6.88;;
61895;SDS011;47835;52.778;5.956;2023-11-21T13:38:15;10.52;;;5.85;;
61895;SDS011;47835;52.778;5.956;2023-11-21T13:40:42;12.38;;;6.57;;
61895;SDS011;47835;52.778;5.956;2023-11-21T13:43:18;10.82;;;5.80;;
61895;SDS011;47835;52.778;5.956;2023-11-21T13:45:47;11.70;;;8.68;;
61895;SDS011;47835;52.778;5.956;2023-11-21T13:48:24;12.70;;;8.93;;
61895;SDS011;47835;52.778;5.956;2023-11-21T13:51:12;10.15;;;6.57;;
61895;SDS011;47835;52.778;5.956;2023-11-21T13:53:42;10.48;;;5.53;;
61895;SDS011;47835;52.778;5.956;2023-11-21T13:56:10;9.52;;;5.70;;
61895;SDS011;47835;52.778;5.956;2023-11-21T13:58:37;12.82;;;7.57;;
61895;SDS011;47835;52.778;5.956;2023-11-21T14:01:17;10.65;;;6.97;;
61895;SDS011;47835;52.778;5.956;2023-11-21T14:03:49;11.83;;;8.30;;
61895;SDS011;47835;52.778;5.956;2023-11-21T14:06:21;12.95;;;9.68;;
61895;SDS011;47835;52.778;5.956;2023-11-21T14:08:52;11.40;;;8.05;;
61895;SDS011;47835;52.778;5.956;2023-11-21T14:11:21;10.85;;;7.22;;
61895;SDS011;47835;52.778;5.956;2023-11-21T14:13:47;12.93;;;8.13;;
61895;SDS011;47835;52.778;5.956;2023-11-21T14:16:14;10.90;;;7.45;;
61895;SDS011;47835;52.778;5.956;2023-11-21T14:18:42;11.32;;;7.78;;
61895;SDS011;47835;52.778;5.956;2023-11-21T14:21:18;10.55;;;6.55;;
61895;SDS011;47835;52.778;5.956;2023-11-21T14:23:44;9.40;;;6.07;;
61895;SDS011;47835;52.778;5.956;2023-11-21T14:26:11;10.25;;;6.38;;
61895;SDS011;47835;52.778;5.956;2023-11-21T14:28:40;12.00;;;7.45;;
61895;SDS011;47835;52.778;5.956;2023-11-21T14:31:06;10.88;;;7.13;;
61895;SDS011;47835;52.778;5.956;2023-11-21T14:33:32;12.90;;;7.55;;
61895;SDS011;47835;52.778;5.956;2023-11-21T14:35:58;10.30;;;5.75;;
61895;SDS011;47835;52.778;5.956;2023-11-21T14:38:24;8.25;;;5.55;;
61895;SDS011;47835;52.778;5.956;2023-11-21T14:40:49;10.45;;;5.93;;
61895;SDS011;47835;52.778;5.956;2023-11-21T14:43:15;8.80;;;5.47;;
61895;SDS011;47835;52.778;5.956;2023-11-21T14:45:42;9.65;;;5.75;;